createdAt,value
2022-11-25T00:01:12.041Z,3.40
2022-11-25T00:03:39.838Z,2.83
2022-11-25T00:06:24.134Z,2.37
2022-11-25T00:08:53.885Z,2.83
2022-11-25T00:11:20.673Z,5.40
2022-11-25T00:13:48.322Z,2.30
2022-11-25T00:16:17.377Z,4.03
2022-11-25T00:18:48.220Z,3.20
2022-11-25T00:21:18.663Z,2.93
2022-11-25T00:23:50.561Z,2.27
2022-11-25T00:26:17.610Z,2.97
2022-11-25T00:28:46.003Z,3.03
2022-11-25T00:31:14.114Z,2.57
2022-11-25T00:33:41.110Z,5.40
2022-11-25T00:36:19.377Z,2.37
2022-11-25T00:38:46.545Z,4.17
2022-11-25T00:41:32.657Z,2.50
2022-11-25T00:44:17.785Z,2.17
2022-11-25T00:46:44.377Z,2.13
2022-11-25T00:49:10.953Z,2.60
2022-11-25T00:51:37.843Z,2.13
2022-11-25T00:54:04.693Z,2.53
2022-11-25T00:56:31.241Z,1.77
2022-11-25T00:58:57.850Z,2.60
2022-11-25T01:01:25.065Z,4.60
2022-11-25T01:03:52.962Z,3.93
2022-11-25T01:06:20.448Z,2.27
2022-11-25T01:08:47.069Z,2.23
2022-11-25T01:11:16.403Z,1.43
2022-11-25T01:13:43.968Z,1.87
2022-11-25T01:16:16.775Z,1.93
2022-11-25T01:18:44.204Z,2.23
2022-11-25T01:21:16.484Z,1.90
2022-11-25T01:23:43.702Z,2.53
2022-11-25T01:26:16.066Z,2.20
2022-11-25T01:28:42.668Z,3.13
2022-11-25T01:31:18.221Z,2.13
2022-11-25T01:33:46.105Z,1.70
2022-11-25T01:36:15.323Z,1.77
2022-11-25T01:38:42.432Z,1.80
2022-11-25T01:41:13.196Z,2.00
2022-11-25T01:43:40.608Z,2.03
2022-11-25T01:46:16.015Z,2.27
2022-11-25T01:48:49.752Z,2.40
2022-11-25T01:51:27.950Z,1.63
2022-11-25T01:54:02.083Z,2.47
2022-11-25T01:56:33.489Z,1.10
2022-11-25T01:59:00.449Z,3.93
2022-11-25T02:01:27.496Z,1.80
2022-11-25T02:03:59.605Z,1.37
2022-11-25T02:06:31.199Z,1.73
2022-11-25T02:09:04.759Z,1.83
2022-11-25T02:11:33.920Z,1.47
2022-11-25T02:14:02.106Z,2.67
2022-11-25T02:16:29.116Z,1.93
2022-11-25T02:18:56.452Z,1.20
2022-11-25T02:21:43.238Z,2.67
2022-11-25T02:24:31.269Z,1.70
2022-11-25T02:26:58.513Z,3.20
2022-11-25T02:29:26.285Z,1.63
2022-11-25T02:31:53.361Z,3.57
2022-11-25T02:34:19.935Z,1.30
2022-11-25T02:36:46.562Z,2.07
2022-11-25T02:39:13.550Z,1.10
2022-11-25T02:41:45.838Z,2.17
2022-11-25T02:44:12.430Z,1.60
2022-11-25T02:46:39.325Z,1.33
2022-11-25T02:49:10.224Z,0.97
2022-11-25T02:51:38.535Z,1.57
2022-11-25T02:54:05.187Z,1.37
2022-11-25T02:56:34.396Z,1.20
2022-11-25T02:59:01.725Z,1.07
2022-11-25T03:01:29.833Z,1.30
2022-11-25T03:03:57.263Z,4.77
2022-11-25T03:06:23.932Z,1.33
2022-11-25T03:08:50.533Z,2.73
2022-11-25T03:11:17.197Z,1.67
2022-11-25T03:13:43.747Z,1.30
2022-11-25T03:16:10.520Z,2.00
2022-11-25T03:18:37.343Z,2.43
2022-11-25T03:21:04.155Z,6.97
2022-11-25T03:23:33.322Z,1.90
2022-11-25T03:25:59.902Z,2.10
2022-11-25T03:28:26.461Z,2.03
2022-11-25T03:30:53.023Z,2.67
2022-11-25T03:33:19.660Z,1.50
2022-11-25T03:35:48.410Z,1.93
2022-11-25T03:38:14.946Z,2.40
2022-11-25T03:40:41.501Z,2.23
2022-11-25T03:43:08.060Z,1.83
2022-11-25T03:45:34.635Z,5.37
2022-11-25T03:48:01.217Z,1.93
2022-11-25T03:50:27.782Z,1.90
2022-11-25T03:52:54.318Z,2.07
2022-11-25T03:55:20.870Z,1.83
2022-11-25T03:57:47.406Z,1.60
2022-11-25T04:00:14.121Z,2.00
2022-11-25T04:02:40.690Z,1.57
2022-11-25T04:05:07.642Z,2.23
2022-11-25T04:07:34.248Z,2.60
2022-11-25T04:10:00.898Z,1.57
2022-11-25T04:12:46.032Z,1.50
2022-11-25T04:15:14.060Z,2.10
2022-11-25T04:17:40.720Z,2.83
2022-11-25T04:20:08.022Z,3.47
2022-11-25T04:22:34.589Z,2.10
2022-11-25T04:25:01.333Z,1.97
2022-11-25T04:27:27.882Z,2.63
2022-11-25T04:29:54.425Z,2.30
2022-11-25T04:32:21.049Z,1.40
2022-11-25T04:34:47.677Z,3.60
2022-11-25T04:37:14.553Z,3.13
2022-11-25T04:39:41.172Z,2.47
2022-11-25T04:42:26.578Z,2.20
2022-11-25T04:45:20.958Z,1.67
2022-11-25T04:47:39.977Z,1.73
2022-11-25T04:50:09.335Z,3.47
2022-11-25T04:52:35.920Z,2.03
2022-11-25T04:55:02.464Z,2.63
2022-11-25T04:57:29.033Z,3.23
2022-11-25T04:59:55.581Z,1.40
2022-11-25T05:02:24.785Z,2.50
2022-11-25T05:04:53.590Z,2.00
2022-11-25T05:07:22.865Z,2.43
2022-11-25T05:09:49.805Z,2.37
2022-11-25T05:12:20.738Z,2.83
2022-11-25T05:14:47.338Z,2.00
2022-11-25T05:17:19.882Z,4.23
2022-11-25T05:19:47.194Z,1.63
2022-11-25T05:22:16.949Z,1.70
2022-11-25T05:24:44.546Z,2.33
2022-11-25T05:27:11.579Z,2.03
2022-11-25T05:29:38.160Z,3.27
2022-11-25T05:32:05.558Z,1.53
2022-11-25T05:34:32.117Z,4.03
2022-11-25T05:36:58.992Z,2.20
2022-11-25T05:39:25.604Z,4.93
2022-11-25T05:41:52.197Z,1.93
2022-11-25T05:44:22.896Z,2.17
2022-11-25T05:46:50.421Z,3.37
2022-11-25T05:49:18.331Z,1.90
2022-11-25T05:51:45.736Z,1.40
2022-11-25T05:54:12.354Z,2.33
2022-11-25T05:56:39.037Z,1.97
2022-11-25T05:59:06.240Z,3.40
2022-11-25T06:01:33.661Z,3.27
2022-11-25T06:04:04.547Z,2.43
2022-11-25T06:06:32.187Z,1.80
2022-11-25T06:08:59.364Z,1.33
2022-11-25T06:11:25.913Z,7.00
2022-11-25T06:13:52.523Z,3.17
2022-11-25T06:16:21.858Z,1.83
2022-11-25T06:18:48.548Z,1.83
2022-11-25T06:21:16.066Z,3.60
2022-11-25T06:23:44.816Z,2.40
2022-11-25T06:26:17.768Z,3.30
2022-11-25T06:28:44.566Z,3.10
2022-11-25T06:31:19.302Z,1.80
2022-11-25T06:33:50.401Z,3.03
2022-11-25T06:36:18.617Z,1.93
2022-11-25T06:38:47.237Z,3.23
2022-11-25T06:41:14.520Z,3.63
2022-11-25T06:43:41.471Z,4.60
2022-11-25T06:46:10.556Z,1.83
2022-11-25T06:48:37.650Z,2.23
2022-11-25T06:51:07.117Z,2.23
2022-11-25T06:53:35.166Z,2.27
2022-11-25T06:56:12.401Z,2.27
2022-11-25T06:58:39.990Z,2.60
2022-11-25T07:01:19.261Z,2.33
2022-11-25T07:03:47.266Z,2.43
2022-11-25T07:06:15.229Z,2.20
2022-11-25T07:08:42.367Z,2.10
2022-11-25T07:11:16.689Z,3.20
2022-11-25T07:13:43.502Z,4.47
2022-11-25T07:16:11.155Z,3.37
2022-11-25T07:18:39.269Z,5.20
2022-11-25T07:21:15.014Z,3.33
2022-11-25T07:23:43.613Z,2.93
2022-11-25T07:26:14.064Z,9.73
2022-11-25T07:28:41.804Z,6.10
2022-11-25T07:31:27.109Z,3.33
2022-11-25T07:33:56.800Z,11.57
2022-11-25T07:36:23.905Z,6.70
2022-11-25T07:38:50.979Z,7.67
2022-11-25T07:41:23.288Z,3.37
2022-11-25T07:43:55.335Z,3.97
2022-11-25T07:46:36.415Z,6.53
2022-11-25T07:49:09.829Z,3.73
2022-11-25T07:51:38.258Z,7.10
2022-11-25T07:54:07.631Z,3.20
2022-11-25T07:56:36.387Z,8.97
2022-11-25T07:59:03.673Z,4.13
2022-11-25T08:01:30.318Z,4.53
2022-11-25T08:03:57.350Z,3.10
2022-11-25T08:06:26.941Z,8.80
2022-11-25T08:08:55.731Z,4.23
2022-11-25T08:11:25.318Z,5.73
2022-11-25T08:13:52.249Z,4.33
2022-11-25T08:16:20.675Z,2.87
2022-11-25T08:18:48.101Z,3.73
2022-11-25T08:21:16.232Z,4.23
2022-11-25T08:23:48.748Z,6.30
2022-11-25T08:26:19.861Z,4.13
2022-11-25T08:28:47.182Z,3.63
2022-11-25T08:31:23.321Z,3.37
2022-11-25T08:33:50.633Z,3.57
2022-11-25T08:36:18.355Z,5.47
2022-11-25T08:38:47.547Z,4.93
2022-11-25T08:41:23.903Z,3.30
2022-11-25T08:43:50.850Z,3.07
2022-11-25T08:46:21.120Z,5.37
2022-11-25T08:48:47.725Z,6.97
2022-11-25T08:51:18.906Z,3.13
2022-11-25T08:53:46.512Z,5.47
2022-11-25T08:56:14.266Z,8.73
2022-11-25T08:58:41.108Z,3.67
2022-11-25T09:01:08.259Z,4.40
2022-11-25T09:03:38.270Z,4.47
2022-11-25T09:06:06.536Z,4.87
2022-11-25T09:08:33.687Z,4.00
2022-11-25T09:11:00.959Z,4.83
2022-11-25T09:13:27.617Z,5.20
2022-11-25T09:15:54.258Z,8.90
2022-11-25T09:18:25.659Z,4.03
2022-11-25T09:20:53.482Z,3.53
2022-11-25T09:23:20.762Z,3.40
2022-11-25T09:25:58.042Z,8.70
2022-11-25T09:28:26.427Z,3.23
2022-11-25T09:30:53.310Z,4.67
2022-11-25T09:33:21.342Z,4.17
2022-11-25T09:35:48.771Z,3.90
2022-11-25T09:38:15.326Z,4.17
2022-11-25T09:41:39.199Z,5.93
2022-11-25T09:44:56.593Z,3.73
2022-11-25T09:48:08.088Z,4.20
2022-11-25T09:51:12.133Z,4.37
2022-11-25T09:53:43.898Z,3.80
2022-11-25T09:56:41.337Z,9.07
2022-11-25T09:59:17.154Z,5.23
2022-11-25T10:01:57.652Z,3.77
2022-11-25T10:04:47.435Z,5.03
2022-11-25T10:07:21.320Z,4.10
2022-11-25T10:09:48.092Z,4.67
2022-11-25T10:12:20.441Z,7.93
2022-11-25T10:14:49.729Z,5.87
2022-11-25T10:17:33.387Z,4.60
2022-11-25T10:20:07.127Z,4.47
2022-11-25T10:22:41.813Z,3.93
2022-11-25T10:25:27.573Z,3.30
2022-11-25T10:28:01.297Z,4.20
2022-11-25T10:30:44.220Z,4.07
2022-11-25T10:33:24.851Z,4.47
2022-11-25T10:36:00.378Z,3.27
2022-11-25T10:38:39.621Z,5.40
2022-11-25T10:41:06.226Z,5.17
2022-11-25T10:43:33.639Z,3.97
2022-11-25T10:46:21.811Z,4.73
2022-11-25T10:48:51.090Z,4.73
2022-11-25T10:51:35.553Z,3.97
2022-11-25T10:54:16.356Z,3.90
2022-11-25T10:56:51.914Z,4.73
2022-11-25T10:59:36.462Z,3.97
2022-11-25T11:02:30.663Z,4.47
2022-11-25T11:05:00.489Z,8.13
2022-11-25T11:07:30.501Z,5.47
2022-11-25T11:10:21.104Z,5.87
2022-11-25T11:12:59.195Z,8.23
2022-11-25T11:15:32.471Z,7.53
2022-11-25T11:18:14.261Z,11.23
2022-11-25T11:20:46.803Z,5.57
2022-11-25T11:23:14.304Z,6.67
2022-11-25T11:25:43.180Z,6.57
2022-11-25T11:28:35.110Z,6.20
2022-11-25T11:31:26.300Z,4.90
2022-11-25T11:34:08.812Z,6.17
2022-11-25T11:36:51.501Z,5.87
2022-11-25T11:40:00.035Z,6.07
2022-11-25T11:42:48.006Z,6.60
2022-11-25T11:45:26.517Z,5.90
2022-11-25T11:48:29.238Z,8.93
2022-11-25T11:51:05.850Z,8.70
2022-11-25T11:53:38.157Z,8.57
2022-11-25T11:58:55.248Z,5.93
2022-11-25T12:01:43.869Z,7.57
2022-11-25T12:04:30.907Z,5.67
2022-11-25T12:07:09.421Z,10.37
2022-11-25T12:09:52.629Z,8.73
2022-11-25T12:12:22.485Z,6.33
2022-11-25T12:15:01.130Z,6.77
2022-11-25T12:17:35.752Z,4.83
2022-11-25T12:20:19.693Z,5.37
2022-11-25T12:22:52.209Z,7.83
2022-11-25T12:25:31.129Z,7.60
2022-11-25T12:28:06.393Z,6.70
2022-11-25T12:30:46.762Z,8.37
2022-11-25T12:33:35.326Z,8.70
2022-11-25T12:36:17.826Z,7.03
2022-11-25T12:39:02.222Z,6.70
2022-11-25T12:41:45.052Z,7.27
2022-11-25T12:44:52.750Z,6.93
2022-11-25T12:47:19.562Z,5.67
2022-11-25T12:49:51.042Z,6.43
2022-11-25T12:52:50.990Z,8.83
2022-11-25T12:55:22.357Z,6.83
2022-11-25T12:58:22.813Z,11.90
2022-11-25T13:01:08.042Z,7.53
2022-11-25T13:04:28.289Z,7.63
2022-11-25T13:07:04.873Z,7.97
2022-11-25T13:10:00.033Z,8.67
2022-11-25T13:12:41.768Z,7.70
2022-11-25T13:15:46.281Z,8.13
2022-11-25T13:18:18.555Z,18.17
2022-11-25T13:20:51.839Z,5.17
2022-11-25T13:23:18.413Z,8.83
2022-11-25T13:25:47.583Z,6.93
2022-11-25T13:28:33.382Z,6.80
2022-11-25T13:31:24.752Z,7.50
2022-11-25T13:33:58.497Z,10.37
2022-11-25T13:36:43.014Z,12.57
2022-11-25T13:39:18.194Z,8.70
2022-11-25T13:41:48.792Z,7.33
2022-11-25T13:44:25.564Z,9.63
2022-11-25T13:46:53.716Z,7.60
2022-11-25T13:49:39.102Z,11.13
2022-11-25T13:52:11.398Z,8.17
2022-11-25T13:54:55.921Z,9.77
2022-11-25T13:57:27.650Z,8.90
2022-11-25T14:00:00.101Z,8.70
2022-11-25T14:02:29.903Z,8.47
2022-11-25T14:05:08.687Z,8.80
2022-11-25T14:07:52.698Z,6.50
2022-11-25T14:10:45.041Z,6.57
2022-11-25T14:13:30.203Z,7.37
2022-11-25T14:16:06.901Z,7.00
2022-11-25T14:21:30.249Z,8.87
2022-11-25T14:23:56.736Z,10.57
2022-11-25T14:26:50.671Z,9.70
2022-11-25T14:29:32.205Z,12.97
2022-11-25T14:32:15.906Z,9.33
2022-11-25T14:34:54.856Z,8.50
2022-11-25T14:37:27.802Z,13.83
2022-11-25T14:40:04.015Z,8.23
2022-11-25T14:42:37.589Z,8.10
2022-11-25T14:45:20.611Z,7.50
2022-11-25T14:47:47.270Z,6.70
2022-11-25T14:53:09.534Z,7.00
2022-11-25T14:55:37.135Z,8.23
2022-11-25T14:58:04.290Z,6.10
2022-11-25T15:00:31.045Z,5.83
2022-11-25T15:03:00.229Z,7.63
2022-11-25T15:05:35.410Z,8.33
2022-11-25T15:08:08.043Z,8.83
2022-11-25T15:10:56.160Z,8.00
2022-11-25T15:13:39.259Z,6.20
2022-11-25T15:16:18.816Z,8.73
2022-11-25T15:18:50.736Z,9.33
2022-11-25T15:21:21.879Z,8.90
2022-11-25T15:23:48.726Z,8.40
2022-11-25T15:26:20.966Z,8.33
2022-11-25T15:28:47.810Z,9.07
2022-11-25T15:31:20.441Z,8.10
2022-11-25T15:33:54.410Z,8.67
2022-11-25T15:36:23.962Z,7.57
2022-11-25T15:38:51.443Z,9.77
2022-11-25T15:41:38.189Z,8.30
2022-11-25T15:44:06.315Z,9.50
2022-11-25T15:46:35.903Z,6.67
2022-11-25T15:49:05.916Z,7.67
2022-11-25T15:51:51.026Z,9.17
2022-11-25T15:54:43.117Z,8.90
2022-11-25T15:57:28.480Z,8.83
2022-11-25T15:59:54.987Z,9.17
2022-11-25T16:02:27.488Z,6.43
2022-11-25T16:05:14.440Z,9.90
2022-11-25T16:07:52.988Z,7.17
2022-11-25T16:10:19.516Z,8.50
2022-11-25T16:13:21.778Z,10.50
2022-11-25T16:16:03.220Z,8.50
2022-11-25T16:18:42.844Z,7.40
2022-11-25T16:21:13.529Z,9.80
2022-11-25T16:23:47.654Z,6.93
2022-11-25T16:26:18.969Z,8.33
2022-11-25T16:28:57.289Z,9.10
2022-11-25T16:31:24.775Z,11.30
2022-11-25T16:34:01.513Z,9.47
2022-11-25T16:36:28.072Z,9.33
2022-11-25T16:38:54.703Z,7.77
2022-11-25T16:41:25.100Z,11.13
2022-11-25T16:43:52.538Z,7.83
2022-11-25T16:46:20.164Z,7.00
2022-11-25T16:48:47.555Z,8.60
2022-11-25T16:51:22.300Z,7.10
2022-11-25T16:53:52.777Z,8.20
2022-11-25T16:56:28.594Z,7.70
2022-11-25T16:58:55.994Z,8.17
2022-11-25T17:01:25.755Z,10.63
2022-11-25T17:03:52.469Z,10.20
2022-11-25T17:06:24.038Z,8.50
2022-11-25T17:08:51.576Z,10.23
2022-11-25T17:11:57.681Z,9.63
2022-11-25T17:14:29.544Z,9.43
2022-11-25T17:16:56.457Z,9.47
2022-11-25T17:19:26.067Z,10.50
2022-11-25T17:21:52.703Z,12.53
2022-11-25T17:24:24.642Z,9.43
2022-11-25T17:26:54.942Z,9.17
2022-11-25T17:29:44.105Z,9.87
2022-11-25T17:32:15.582Z,9.40
2022-11-25T17:34:42.244Z,10.10
2022-11-25T17:37:22.837Z,10.40
2022-11-25T17:39:50.485Z,12.53
2022-11-25T17:42:18.990Z,11.87
2022-11-25T17:44:49.934Z,12.77
2022-11-25T17:47:18.065Z,10.27
2022-11-25T17:49:46.023Z,13.60
2022-11-25T17:52:12.620Z,12.10
2022-11-25T17:54:39.935Z,9.63
2022-11-25T17:57:11.464Z,10.83
2022-11-25T17:59:38.282Z,7.07
2022-11-25T18:02:16.465Z,9.13
2022-11-25T18:04:43.025Z,9.60
2022-11-25T18:07:10.523Z,10.67
2022-11-25T18:09:37.080Z,11.40
2022-11-25T18:12:11.611Z,8.93
2022-11-25T18:14:40.891Z,13.00
2022-11-25T18:17:11.058Z,19.17
2022-11-25T18:19:37.691Z,25.97
2022-11-25T18:22:15.704Z,18.07
2022-11-25T18:24:43.041Z,22.80
2022-11-25T18:27:29.069Z,22.63
2022-11-25T18:29:56.400Z,12.57
2022-11-25T18:32:23.863Z,12.13
2022-11-25T18:34:51.569Z,14.47
2022-11-25T18:37:18.169Z,13.53
2022-11-25T18:39:44.774Z,11.30
2022-11-25T18:42:25.796Z,12.03
2022-11-25T18:44:54.850Z,10.63
2022-11-25T18:47:21.432Z,14.13
2022-11-25T18:49:53.905Z,12.13
2022-11-25T18:52:22.269Z,10.40
2022-11-25T18:54:49.485Z,11.40
2022-11-25T18:57:16.229Z,14.73
2022-11-25T18:59:43.742Z,11.97
2022-11-25T19:02:17.069Z,14.37
2022-11-25T19:04:44.462Z,13.87
2022-11-25T19:07:11.124Z,11.27
2022-11-25T19:09:37.801Z,10.10
2022-11-25T19:12:05.118Z,12.10
2022-11-25T19:14:41.717Z,12.20
2022-11-25T19:17:19.755Z,11.00
2022-11-25T19:19:47.110Z,12.60
2022-11-25T19:22:15.692Z,12.40
2022-11-25T19:24:42.684Z,13.40
2022-11-25T19:27:18.505Z,11.80
2022-11-25T19:29:46.225Z,13.13
2022-11-25T19:32:23.041Z,11.10
2022-11-25T19:34:54.742Z,12.80
2022-11-25T19:37:22.853Z,11.93
2022-11-25T19:39:52.921Z,12.97
2022-11-25T19:42:19.762Z,13.20
2022-11-25T19:44:47.259Z,13.47
2022-11-25T19:47:21.087Z,13.07
2022-11-25T19:49:48.817Z,15.03
2022-11-25T19:52:18.318Z,11.70
2022-11-25T19:54:44.982Z,11.93
2022-11-25T19:57:23.730Z,10.17
2022-11-25T19:59:50.642Z,14.93
2022-11-25T20:02:26.607Z,12.53
2022-11-25T20:04:56.385Z,15.43
2022-11-25T20:07:23.382Z,16.00
2022-11-25T20:09:53.605Z,13.87
2022-11-25T20:12:30.533Z,12.77
2022-11-25T20:14:57.145Z,14.07
2022-11-25T20:17:30.712Z,13.37
2022-11-25T20:20:03.073Z,13.50
2022-11-25T20:22:32.653Z,11.57
2022-11-25T20:25:02.743Z,14.63
2022-11-25T20:27:29.720Z,12.63
2022-11-25T20:29:56.320Z,14.97
2022-11-25T20:32:34.205Z,13.93
2022-11-25T20:35:00.797Z,13.53
2022-11-25T20:37:29.633Z,12.67
2022-11-25T20:39:58.636Z,12.53
2022-11-25T20:42:26.566Z,11.83
2022-11-25T20:44:57.296Z,13.67
2022-11-25T20:47:26.388Z,12.63
2022-11-25T20:49:53.749Z,16.10
2022-11-25T20:52:28.257Z,14.17
2022-11-25T20:54:54.922Z,12.07
2022-11-25T20:57:21.510Z,12.40
2022-11-25T20:59:48.082Z,12.37
2022-11-25T21:02:16.622Z,12.27
2022-11-25T21:04:43.224Z,11.87
2022-11-25T21:07:17.927Z,9.23
2022-11-25T21:09:45.780Z,12.73
2022-11-25T21:12:18.778Z,10.90
2022-11-25T21:14:46.089Z,11.30
2022-11-25T21:17:12.638Z,12.33
2022-11-25T21:19:40.303Z,12.63
2022-11-25T21:22:06.875Z,12.77
2022-11-25T21:24:40.511Z,11.60
2022-11-25T21:27:14.487Z,11.00
2022-11-25T21:29:43.067Z,10.70
2022-11-25T21:32:29.874Z,11.30
2022-11-25T21:34:57.813Z,10.47
2022-11-25T21:37:36.437Z,11.90
2022-11-25T21:40:05.158Z,11.70
2022-11-25T21:42:32.703Z,11.37
2022-11-25T21:44:59.471Z,9.90
2022-11-25T21:47:28.854Z,11.00
2022-11-25T21:49:55.522Z,10.20
2022-11-25T21:52:22.101Z,10.20
2022-11-25T21:54:48.666Z,10.77
2022-11-25T21:57:26.181Z,13.03
2022-11-25T21:59:52.773Z,13.00
2022-11-25T22:02:24.752Z,10.20
2022-11-25T22:04:52.368Z,12.13
2022-11-25T22:07:19.084Z,12.20
2022-11-25T22:09:45.759Z,15.87
2022-11-25T22:12:36.797Z,14.07
2022-11-25T22:15:16.090Z,10.90
2022-11-25T22:17:43.482Z,10.70
2022-11-25T22:20:29.424Z,11.23
2022-11-25T22:22:56.618Z,8.37
2022-11-25T22:25:25.723Z,14.77
2022-11-25T22:27:52.404Z,14.53
2022-11-25T22:30:21.061Z,13.83
2022-11-25T22:32:58.561Z,13.40
2022-11-25T22:35:25.133Z,11.10
2022-11-25T22:37:55.210Z,15.70
2022-11-25T22:40:23.592Z,16.37
2022-11-25T22:42:55.383Z,13.43
2022-11-25T22:45:33.017Z,10.97
2022-11-25T22:48:03.567Z,12.37
2022-11-25T22:50:33.625Z,13.67
2022-11-25T22:53:01.534Z,12.87
2022-11-25T22:55:33.095Z,10.43
2022-11-25T22:58:01.814Z,16.67
2022-11-25T23:00:32.596Z,9.73
2022-11-25T23:03:00.630Z,13.53
2022-11-25T23:05:33.189Z,11.33
2022-11-25T23:08:01.727Z,9.87
2022-11-25T23:10:31.628Z,12.80
2022-11-25T23:12:58.366Z,9.63
2022-11-25T23:15:25.193Z,8.70
2022-11-25T23:17:58.142Z,8.57
2022-11-25T23:20:30.361Z,10.00
2022-11-25T23:22:57.729Z,10.13
2022-11-25T23:25:24.392Z,10.10
2022-11-25T23:27:50.950Z,12.97
2022-11-25T23:30:20.217Z,10.07
2022-11-25T23:32:49.907Z,9.70
2022-11-25T23:35:19.170Z,12.50
2022-11-25T23:37:52.181Z,14.87
2022-11-25T23:40:20.921Z,12.07
2022-11-25T23:42:48.445Z,12.43
2022-11-25T23:45:17.795Z,13.57
2022-11-25T23:47:45.936Z,17.50
2022-11-25T23:50:33.963Z,10.83
2022-11-25T23:53:03.517Z,10.67
2022-11-25T23:55:33.875Z,12.67
2022-11-25T23:58:02.506Z,10.57
